Time;durP1;ratioP1;P1;durP2;ratioP2;P2;SDS_P1;SDS_P2;PMS_P1;PMS_P2;Temp;Humidity;BMP_temperature;BMP_pressure;BME280_temperature;BME280_humidity;BME280_pressure;Samples;Min_cycle;Max_cycle;Signal;HPM_P1;HPM_P2
2022/07/22 00:02:23;;;;;;;3.33;3.13;;;18.90;99.90;;;;;;5062198;28;20480;-83
2022/07/22 00:04:50;;;;;;;5.37;4.10;;;18.90;99.90;;;;;;5059584;28;20463;-83
2022/07/22 00:07:17;;;;;;;4.43;3.80;;;18.90;99.90;;;;;;5065102;28;20502;-83
2022/07/22 00:09:44;;;;;;;4.37;3.30;;;19.00;99.90;;;;;;5056014;28;20436;-82
2022/07/22 00:12:11;;;;;;;4.10;3.70;;;18.90;99.90;;;;;;5057833;28;20483;-83
2022/07/22 00:14:38;;;;;;;5.90;3.50;;;18.90;99.90;;;;;;5065816;28;20466;-83
2022/07/22 00:17:07;;;;;;;4.37;3.70;;;18.90;99.90;;;;;;5058765;28;21229;-81
2022/07/22 00:19:34;;;;;;;3.93;3.43;;;18.90;99.90;;;;;;5059081;28;20474;-82
2022/07/22 00:22:01;;;;;;;5.63;4.77;;;18.90;99.90;;;;;;5056561;28;20549;-82
2022/07/22 00:24:28;;;;;;;5.50;4.10;;;19.00;99.90;;;;;;5058969;28;20532;-82
2022/07/22 00:26:55;;;;;;;4.93;4.43;;;19.10;99.90;;;;;;5065337;28;20463;-82
2022/07/22 00:29:22;;;;;;;3.10;2.80;;;19.00;99.90;;;;;;5059682;28;21019;-82
2022/07/22 00:31:50;;;;;;;5.27;3.93;;;19.00;99.90;;;;;;5061672;28;20511;-81
2022/07/22 00:34:18;;;;;;;4.37;4.03;;;19.00;99.90;;;;;;5060082;28;20506;-82
2022/07/22 00:36:45;;;;;;;3.90;3.17;;;18.90;99.90;;;;;;5059725;28;20454;-81
2022/07/22 00:39:12;;;;;;;5.83;5.23;;;18.90;99.90;;;;;;5060778;28;20529;-82
2022/07/22 00:41:39;;;;;;;6.70;4.83;;;18.90;99.90;;;;;;5063679;28;20555;-82
2022/07/22 00:44:08;;;;;;;4.67;4.20;;;18.90;99.90;;;;;;5063176;28;20464;-82
2022/07/22 00:46:37;;;;;;;7.40;4.73;;;18.70;99.90;;;;;;5056821;28;20453;-82
2022/07/22 00:49:06;;;;;;;4.03;3.67;;;18.60;99.90;;;;;;5054244;28;21065;-82
2022/07/22 00:51:35;;;;;;;3.50;3.20;;;18.70;99.90;;;;;;5059583;28;20597;-83
2022/07/22 00:54:03;;;;;;;4.73;4.23;;;18.70;99.90;;;;;;5060069;28;20471;-81
2022/07/22 00:56:31;;;;;;;4.70;4.17;;;18.80;99.90;;;;;;5064033;28;20454;-82
2022/07/22 00:59:01;;;;;;;6.40;5.80;;;18.90;99.90;;;;;;5051206;28;20470;-83
2022/07/22 01:01:29;;;;;;;6.30;4.83;;;19.00;99.90;;;;;;5063695;28;20530;-81
2022/07/22 01:03:56;;;;;;;5.30;4.20;;;19.00;99.90;;;;;;5053133;28;20819;-82
2022/07/22 01:06:23;;;;;;;4.00;3.70;;;19.10;99.90;;;;;;5064023;28;20969;-82
2022/07/22 01:08:51;;;;;;;5.47;4.97;;;18.90;99.90;;;;;;5055939;28;20461;-82
2022/07/22 01:11:20;;;;;;;5.20;4.70;;;18.80;99.90;;;;;;5052663;28;20463;-81
2022/07/22 01:13:48;;;;;;;5.23;4.53;;;18.90;99.90;;;;;;5053342;28;20463;-82
2022/07/22 01:16:17;;;;;;;10.00;4.73;;;18.90;99.90;;;;;;5061330;28;20494;-82
2022/07/22 01:18:46;;;;;;;6.87;4.40;;;18.90;99.90;;;;;;5059481;28;20942;-81
2022/07/22 01:21:15;;;;;;;6.37;5.37;;;19.00;99.90;;;;;;5055265;28;20463;-82
2022/07/22 01:23:42;;;;;;;5.03;4.53;;;18.90;99.90;;;;;;5061154;28;20488;-83
2022/07/22 01:26:09;;;;;;;5.27;4.47;;;18.80;99.90;;;;;;5063412;28;20462;-80
2022/07/22 01:28:37;;;;;;;7.67;5.43;;;18.80;99.90;;;;;;5054571;28;20511;-81
2022/07/22 01:31:04;;;;;;;7.20;5.47;;;18.90;99.90;;;;;;5059858;28;20540;-84
2022/07/22 01:33:32;;;;;;;7.50;4.13;;;18.80;99.90;;;;;;5055918;28;20891;-83
2022/07/22 01:35:59;;;;;;;5.47;4.90;;;18.70;99.90;;;;;;5060096;28;20499;-85
2022/07/22 01:38:27;;;;;;;7.60;4.40;;;18.80;99.90;;;;;;5063182;28;20459;-84
2022/07/22 01:40:54;;;;;;;5.90;5.30;;;18.80;99.90;;;;;;5053655;28;20505;-85
2022/07/22 01:43:21;;;;;;;6.47;5.83;;;18.60;99.90;;;;;;5052976;28;20480;-85
2022/07/22 01:45:50;;;;;;;4.47;4.07;;;18.50;99.90;;;;;;5058135;28;20453;-86
2022/07/22 01:48:18;;;;;;;5.43;4.23;;;18.40;99.90;;;;;;5058018;28;20462;-84
2022/07/22 01:50:46;;;;;;;4.50;4.10;;;18.40;99.90;;;;;;5056986;28;20527;-86
2022/07/22 01:53:13;;;;;;;8.83;5.90;;;18.30;99.90;;;;;;5057237;28;21283;-84
2022/07/22 01:55:42;;;;;;;6.00;5.20;;;18.30;99.90;;;;;;5057881;28;20456;-84
2022/07/22 01:58:09;;;;;;;5.10;4.70;;;18.40;99.90;;;;;;5060513;28;20468;-84
2022/07/22 02:00:37;;;;;;;6.03;4.23;;;18.40;99.90;;;;;;5058440;28;20451;-84
2022/07/22 02:03:04;;;;;;;5.57;3.87;;;18.40;99.90;;;;;;5054454;28;20468;-84
2022/07/22 02:05:32;;;;;;;4.40;3.93;;;18.40;99.90;;;;;;5062821;28;20489;-84
2022/07/22 02:08:01;;;;;;;6.10;4.50;;;18.40;99.90;;;;;;5070574;28;20688;-84
2022/07/22 02:10:29;;;;;;;3.77;3.47;;;18.30;99.90;;;;;;5074565;28;20557;-84
2022/07/22 02:12:57;;;;;;;7.97;3.90;;;18.40;99.90;;;;;;5075467;28;20534;-84
2022/07/22 02:15:25;;;;;;;5.77;4.73;;;18.40;99.90;;;;;;5058231;28;20465;-85
2022/07/22 02:17:52;;;;;;;6.80;4.80;;;18.60;99.90;;;;;;5053863;28;20940;-84
2022/07/22 02:20:18;;;;;;;5.87;4.30;;;18.70;99.90;;;;;;5056715;28;20462;-85
2022/07/22 02:22:45;;;;;;;4.33;3.93;;;18.70;99.90;;;;;;5058209;28;20469;-84
2022/07/22 02:25:13;;;;;;;5.30;4.07;;;18.50;99.90;;;;;;5057572;28;21040;-84
2022/07/22 02:27:40;;;;;;;4.80;4.33;;;18.50;99.90;;;;;;5057753;28;20445;-84
2022/07/22 02:30:10;;;;;;;5.87;4.67;;;18.50;99.90;;;;;;5057825;28;20475;-84
2022/07/22 02:32:37;;;;;;;4.77;4.20;;;18.50;99.90;;;;;;5056508;28;21133;-84
2022/07/22 02:35:05;;;;;;;5.90;4.80;;;18.60;99.90;;;;;;5059599;28;20533;-86
2022/07/22 02:37:32;;;;;;;7.13;4.80;;;18.50;99.90;;;;;;5055555;28;20457;-84
2022/07/22 02:39:59;;;;;;;5.17;4.67;;;18.40;99.90;;;;;;5053466;28;20463;-84
2022/07/22 02:42:26;;;;;;;5.13;4.63;;;18.50;99.90;;;;;;5063900;28;20468;-84
2022/07/22 02:44:53;;;;;;;4.47;4.07;;;18.50;99.90;;;;;;5056874;28;20492;-84
2022/07/22 02:47:21;;;;;;;4.27;3.57;;;18.50;99.90;;;;;;5061523;28;20536;-84
2022/07/22 02:49:48;;;;;;;5.53;4.40;;;18.60;99.90;;;;;;5061909;28;20507;-84
2022/07/22 02:52:15;;;;;;;5.10;4.30;;;18.50;99.90;;;;;;5064880;28;20508;-84
2022/07/22 02:54:43;;;;;;;8.63;5.80;;;18.60;99.90;;;;;;5063212;28;20451;-84
2022/07/22 02:57:10;;;;;;;5.13;4.50;;;18.60;99.90;;;;;;5057597;28;20460;-85
2022/07/22 02:59:37;;;;;;;4.40;4.00;;;18.60;99.90;;;;;;5055129;28;20452;-84
2022/07/22 03:02:04;;;;;;;9.10;4.60;;;18.40;99.90;;;;;;5061765;28;20476;-84
2022/07/22 03:04:33;;;;;;;4.57;4.17;;;18.30;99.90;;;;;;5067094;28;20492;-85
2022/07/22 03:07:00;;;;;;;6.30;5.00;;;18.20;99.90;;;;;;5057143;28;20476;-84
2022/07/22 03:09:27;;;;;;;5.33;4.33;;;18.30;99.90;;;;;;5060185;28;20550;-84
2022/07/22 03:11:54;;;;;;;5.57;4.33;;;18.20;99.90;;;;;;5057601;28;20469;-84
2022/07/22 03:14:21;;;;;;;6.40;4.53;;;18.30;99.90;;;;;;5059102;28;20469;-85
2022/07/22 03:16:49;;;;;;;4.77;4.37;;;18.30;99.90;;;;;;5061215;28;21029;-84
2022/07/22 03:19:16;;;;;;;6.30;5.10;;;18.40;99.90;;;;;;5065218;28;20915;-84
2022/07/22 03:21:44;;;;;;;6.03;4.70;;;18.30;99.90;;;;;;5060406;28;21174;-84
2022/07/22 03:24:11;;;;;;;4.60;4.10;;;18.20;99.90;;;;;;5060915;28;20487;-84
2022/07/22 03:26:38;;;;;;;8.00;5.30;;;18.10;99.90;;;;;;5066258;28;20464;-85
2022/07/22 03:29:05;;;;;;;5.97;5.33;;;18.10;99.90;;;;;;5060025;28;20460;-87
2022/07/22 03:31:32;;;;;;;5.27;4.00;;;18.10;99.90;;;;;;5063245;28;20871;-84
2022/07/22 03:34:00;;;;;;;4.80;4.30;;;18.00;99.90;;;;;;5065786;28;20500;-84
2022/07/22 03:36:28;;;;;;;5.13;4.70;;;18.00;99.90;;;;;;5055445;28;20494;-84
2022/07/22 03:38:56;;;;;;;4.60;4.10;;;18.00;99.90;;;;;;5062526;28;20459;-83
2022/07/22 03:41:24;;;;;;;3.93;3.63;;;18.00;99.90;;;;;;5062507;28;20451;-86
2022/07/22 03:43:51;;;;;;;5.93;4.40;;;18.10;99.90;;;;;;5058535;28;20470;-84
2022/07/22 03:46:18;;;;;;;4.50;3.83;;;18.10;99.90;;;;;;5059501;28;20461;-84
2022/07/22 03:48:45;;;;;;;7.23;5.17;;;18.00;99.90;;;;;;5064043;28;20455;-84
2022/07/22 03:51:12;;;;;;;5.23;4.40;;;18.00;99.90;;;;;;5055521;28;20594;-84
2022/07/22 03:53:39;;;;;;;4.60;3.63;;;18.00;99.90;;;;;;5059297;28;20544;-84
2022/07/22 03:56:09;;;;;;;6.00;5.50;;;18.10;99.90;;;;;;5062648;28;20471;-86
2022/07/22 03:58:36;;;;;;;5.30;4.23;;;18.20;99.90;;;;;;5062949;28;20997;-83
2022/07/22 04:01:03;;;;;;;3.83;3.43;;;18.30;99.90;;;;;;5062249;28;20852;-84
2022/07/22 04:03:30;;;;;;;5.47;4.97;;;18.20;99.90;;;;;;5064618;28;20453;-84
2022/07/22 04:05:57;;;;;;;6.80;4.40;;;18.30;99.90;;;;;;5060290;28;20985;-86
2022/07/22 04:08:24;;;;;;;4.33;3.80;;;18.20;99.90;;;;;;5057445;28;20551;-85
2022/07/22 04:10:51;;;;;;;4.97;4.43;;;18.20;99.90;;;;;;5062432;28;20544;-83
2022/07/22 04:13:20;;;;;;;6.00;4.83;;;18.30;99.90;;;;;;5062157;28;20479;-84
2022/07/22 04:15:47;;;;;;;4.83;4.37;;;18.30;99.90;;;;;;5061129;28;20486;-85
2022/07/22 04:18:15;;;;;;;4.03;3.73;;;18.40;99.90;;;;;;5058445;28;20460;-84
2022/07/22 04:20:42;;;;;;;4.60;4.20;;;18.50;99.90;;;;;;5061451;28;20452;-84
2022/07/22 04:23:09;;;;;;;4.50;4.10;;;18.60;99.90;;;;;;5053968;28;20530;-84
2022/07/22 04:25:36;;;;;;;4.30;3.90;;;18.70;99.90;;;;;;5053696;28;20468;-85
2022/07/22 04:28:03;;;;;;;4.93;4.43;;;18.80;99.90;;;;;;5066367;28;20512;-84
2022/07/22 04:30:31;;;;;;;4.20;3.53;;;18.80;99.90;;;;;;5054699;28;20812;-85
2022/07/22 04:32:59;;;;;;;9.13;3.73;;;18.90;99.90;;;;;;5059426;28;20482;-85
2022/07/22 04:35:26;;;;;;;6.40;5.70;;;18.90;99.90;;;;;;5065242;28;20457;-85
2022/07/22 04:37:53;;;;;;;5.20;3.87;;;18.90;99.90;;;;;;5060094;28;21127;-84
2022/07/22 04:40:20;;;;;;;3.87;3.50;;;18.90;99.90;;;;;;5065090;28;20465;-84
2022/07/22 04:42:47;;;;;;;4.63;3.27;;;19.00;99.90;;;;;;5064287;28;20466;-85
2022/07/22 04:45:14;;;;;;;6.53;4.27;;;19.20;99.90;;;;;;5061596;28;20497;-85
2022/07/22 04:47:42;;;;;;;8.30;3.60;;;19.10;99.90;;;;;;5056026;28;20510;-84
2022/07/22 04:50:10;;;;;;;5.60;3.87;;;19.20;99.90;;;;;;5052470;28;20474;-82
2022/07/22 04:52:37;;;;;;;5.13;4.73;;;19.00;99.90;;;;;;5064577;28;20466;-86
2022/07/22 04:55:04;;;;;;;3.37;2.80;;;19.00;99.90;;;;;;5063409;28;20459;-85
2022/07/22 04:57:31;;;;;;;4.40;4.03;;;19.10;99.90;;;;;;5070184;28;20502;-84
2022/07/22 04:59:58;;;;;;;3.57;3.27;;;19.20;99.90;;;;;;5075705;28;20432;-84
2022/07/22 05:02:25;;;;;;;6.40;3.37;;;19.40;99.90;;;;;;5080084;28;20463;-83
2022/07/22 05:04:54;;;;;;;4.50;4.10;;;19.30;99.90;;;;;;5080082;28;20466;-84
2022/07/22 05:07:21;;;;;;;4.00;2.60;;;19.40;99.90;;;;;;5067665;28;20488;-84
2022/07/22 05:09:48;;;;;;;3.63;3.17;;;19.30;99.90;;;;;;5065109;28;20516;-86
2022/07/22 05:12:15;;;;;;;3.93;3.53;;;19.30;99.90;;;;;;5061598;28;20463;-85
2022/07/22 05:14:42;;;;;;;4.07;3.67;;;19.60;99.90;;;;;;5058801;28;20539;-83
2022/07/22 05:17:11;;;;;;;6.33;5.40;;;19.70;99.90;;;;;;5063695;28;20486;-84
2022/07/22 05:19:39;;;;;;;6.10;4.23;;;19.90;99.90;;;;;;5054077;28;20462;-84
2022/07/22 05:22:08;;;;;;;4.47;4.07;;;19.80;99.90;;;;;;5057453;28;20462;-84
2022/07/22 05:24:36;;;;;;;6.63;3.83;;;19.80;99.90;;;;;;5061574;28;20459;-84
2022/07/22 05:27:03;;;;;;;3.63;2.97;;;19.80;99.90;;;;;;5061016;28;20516;-85
2022/07/22 05:29:30;;;;;;;6.33;5.67;;;19.90;99.90;;;;;;5054771;28;20464;-84
2022/07/22 05:31:57;;;;;;;4.27;3.60;;;19.90;99.90;;;;;;5058190;28;20466;-84
2022/07/22 05:34:24;;;;;;;5.40;4.90;;;20.00;99.90;;;;;;5062966;28;20543;-85
2022/07/22 05:36:52;;;;;;;4.43;4.00;;;19.90;99.90;;;;;;5059395;28;21266;-86
2022/07/22 05:39:20;;;;;;;4.80;4.40;;;19.90;99.90;;;;;;5062126;28;20454;-85
2022/07/22 05:41:47;;;;;;;5.93;5.33;;;19.90;99.90;;;;;;5062937;28;20467;-84
2022/07/22 05:44:15;;;;;;;4.13;3.73;;;19.80;99.90;;;;;;5062054;28;21032;-85
2022/07/22 05:46:42;;;;;;;5.57;5.07;;;19.90;99.90;;;;;;5062245;28;20501;-85
2022/07/22 05:49:08;;;;;;;5.53;4.73;;;19.90;99.90;;;;;;5052793;28;20597;-84
2022/07/22 05:51:36;;;;;;;6.40;5.77;;;20.00;99.90;;;;;;5056211;28;21605;-87
2022/07/22 05:54:03;;;;;;;6.07;4.43;;;20.10;99.90;;;;;;5051772;28;20543;-89
2022/07/22 05:56:32;;;;;;;6.83;4.30;;;20.60;99.90;;;;;;5059513;28;20554;-88
2022/07/22 05:58:59;;;;;;;7.40;4.57;;;20.90;99.90;;;;;;5052872;28;20463;-85
2022/07/22 06:01:27;;;;;;;4.93;4.50;;;21.20;99.90;;;;;;5058874;28;20545;-88
2022/07/22 06:03:54;;;;;;;5.80;5.30;;;21.00;99.90;;;;;;5053793;28;21050;-86
2022/07/22 06:06:21;;;;;;;9.53;6.37;;;20.80;99.90;;;;;;5052979;28;20552;-85
2022/07/22 06:08:48;;;;;;;6.90;6.20;;;21.00;99.90;;;;;;5052186;28;20524;-86
2022/07/22 06:11:15;;;;;;;7.57;6.20;;;20.80;99.90;;;;;;5053677;28;20545;-85
2022/07/22 06:13:43;;;;;;;11.27;5.70;;;20.50;99.90;;;;;;5058906;28;20487;-87
2022/07/22 06:16:10;;;;;;;8.27;7.30;;;20.60;99.90;;;;;;5050909;28;20480;-88
2022/07/22 06:18:37;;;;;;;5.70;5.10;;;20.60;99.90;;;;;;5057893;28;20471;-88
2022/07/22 06:21:07;;;;;;;6.70;4.73;;;20.90;99.90;;;;;;5052349;28;20463;-86
2022/07/22 06:23:34;;;;;;;5.73;5.00;;;21.10;99.90;;;;;;5053723;28;21138;-86
2022/07/22 06:26:01;;;;;;;7.87;6.90;;;21.30;99.90;;;;;;5057387;28;20456;-86
2022/07/22 06:28:28;;;;;;;9.03;6.70;;;21.40;99.90;;;;;;5061967;28;20513;-88
2022/07/22 06:30:57;;;;;;;7.50;6.70;;;21.50;99.90;;;;;;5066296;28;20521;-86
2022/07/22 06:33:24;;;;;;;7.20;6.33;;;21.50;99.90;;;;;;5063014;28;21066;-85
2022/07/22 06:35:51;;;;;;;10.60;6.53;;;21.30;99.90;;;;;;5062208;28;20491;-86
2022/07/22 06:38:18;;;;;;;9.10;7.70;;;21.40;99.90;;;;;;5059130;28;21010;-87
2022/07/22 06:40:45;;;;;;;8.40;6.97;;;21.60;99.90;;;;;;5051915;28;21026;-83
2022/07/22 06:43:12;;;;;;;8.93;6.27;;;21.90;99.90;;;;;;5050746;28;20464;-86
2022/07/22 06:45:39;;;;;;;6.80;6.10;;;22.20;99.90;;;;;;5053487;28;20558;-85
2022/07/22 06:48:08;;;;;;;8.67;6.50;;;22.50;99.90;;;;;;5058973;28;20484;-84
2022/07/22 06:50:35;;;;;;;8.27;6.67;;;22.60;99.90;;;;;;5054661;28;20461;-84
2022/07/22 06:53:02;;;;;;;6.50;5.30;;;22.80;99.90;;;;;;5052176;28;20487;-85
2022/07/22 06:55:29;;;;;;;7.40;5.77;;;23.00;99.90;;;;;;5051628;28;20467;-85
2022/07/22 06:57:56;;;;;;;5.93;5.30;;;23.10;99.90;;;;;;5056659;28;20468;-84
2022/07/22 07:00:23;;;;;;;7.23;6.03;;;23.50;99.90;;;;;;5066345;28;20529;-84
2022/07/22 07:02:50;;;;;;;5.57;5.07;;;23.60;99.90;;;;;;5066346;28;20463;-85
2022/07/22 07:05:18;;;;;;;8.33;5.10;;;23.80;99.90;;;;;;5061206;28;20460;-84
2022/07/22 07:07:45;;;;;;;6.80;4.63;;;23.70;99.90;;;;;;5059426;28;20464;-85
2022/07/22 07:10:15;;;;;;;5.20;4.70;;;23.70;99.90;;;;;;5060044;28;20468;-84
2022/07/22 07:12:42;;;;;;;5.77;5.30;;;23.60;99.90;;;;;;5053969;28;20912;-84
2022/07/22 07:15:09;;;;;;;5.90;5.17;;;23.70;99.90;;;;;;5061620;28;21143;-83
2022/07/22 07:17:36;;;;;;;5.93;5.27;;;23.70;99.90;;;;;;5053670;28;21059;-84
2022/07/22 07:20:04;;;;;;;6.93;6.20;;;24.10;99.90;;;;;;5053374;28;21213;-83
2022/07/22 07:22:33;;;;;;;5.17;4.53;;;24.10;99.90;;;;;;5049686;28;20468;-84
2022/07/22 07:25:03;;;;;;;5.63;5.00;;;23.90;99.90;;;;;;5052934;28;20914;-87
2022/07/22 07:27:30;;;;;;;5.30;4.80;;;24.20;99.90;;;;;;5053821;28;20515;-84
2022/07/22 07:29:57;;;;;;;5.77;5.27;;;24.20;99.90;;;;;;5057230;28;20464;-86
2022/07/22 07:32:24;;;;;;;5.77;4.70;;;24.30;99.90;;;;;;5052863;28;21009;-84
2022/07/22 07:34:51;;;;;;;5.77;5.17;;;24.30;99.90;;;;;;5054880;28;20557;-86
2022/07/22 07:37:18;;;;;;;4.83;4.40;;;24.40;99.90;;;;;;5048543;28;20464;-84
2022/07/22 07:39:46;;;;;;;7.43;6.53;;;24.20;99.90;;;;;;5058189;28;20460;-86
2022/07/22 07:42:13;;;;;;;4.33;4.00;;;24.10;99.90;;;;;;5051140;28;20582;-84
2022/07/22 07:44:41;;;;;;;6.57;5.70;;;23.80;99.90;;;;;;5061399;28;20934;-86
2022/07/22 07:47:08;;;;;;;5.23;4.73;;;23.90;99.90;;;;;;5058154;28;20476;-84
2022/07/22 07:49:34;;;;;;;3.60;3.30;;;24.20;99.90;;;;;;5055766;28;20479;-84
2022/07/22 07:52:02;;;;;;;5.70;5.20;;;24.30;99.90;;;;;;5057962;28;20468;-85
2022/07/22 07:54:29;;;;;;;9.87;5.30;;;24.50;99.90;;;;;;5071320;28;21043;-86
2022/07/22 07:56:57;;;;;;;5.60;4.97;;;24.30;99.90;;;;;;5069733;28;20470;-84
2022/07/22 07:59:24;;;;;;;5.70;4.87;;;24.30;99.90;;;;;;5059071;28;20463;-84
2022/07/22 08:01:51;;;;;;;5.57;5.10;;;24.60;99.90;;;;;;5061049;28;20465;-89
2022/07/22 08:04:18;;;;;;;7.70;6.80;;;24.90;99.90;;;;;;5058874;28;20518;-87
2022/07/22 08:06:45;;;;;;;6.93;5.50;;;24.80;99.90;;;;;;5057048;28;20521;-87
2022/07/22 08:09:12;;;;;;;7.30;5.93;;;24.80;99.90;;;;;;5056739;28;20522;-89
2022/07/22 08:11:39;;;;;;;10.20;5.63;;;24.90;99.90;;;;;;5057112;28;20853;-86
2022/07/22 08:14:07;;;;;;;6.70;6.20;;;24.70;99.90;;;;;;5059503;28;20480;-86
2022/07/22 08:16:35;;;;;;;7.20;6.50;;;24.70;99.90;;;;;;5064225;28;20583;-85
2022/07/22 08:19:02;;;;;;;6.80;6.20;;;25.00;99.90;;;;;;5058957;28;20497;-86
2022/07/22 08:21:29;;;;;;;6.80;6.20;;;25.20;99.90;;;;;;5059206;28;21009;-86
2022/07/22 08:23:56;;;;;;;7.93;7.13;;;25.10;99.90;;;;;;5066342;28;20513;-85
2022/07/22 08:26:23;;;;;;;8.20;6.37;;;25.20;99.90;;;;;;5058455;28;20930;-87
2022/07/22 08:28:50;;;;;;;7.83;7.10;;;25.30;99.90;;;;;;5055294;28;20947;-85
2022/07/22 08:31:18;;;;;;;6.47;5.57;;;25.20;99.90;;;;;;5060701;28;20539;-85
2022/07/22 08:33:45;;;;;;;7.87;7.13;;;25.30;99.90;;;;;;5063171;28;20521;-87
2022/07/22 08:36:12;;;;;;;12.07;9.20;;;25.40;99.90;;;;;;5062655;28;20946;-85
2022/07/22 08:38:39;;;;;;;7.67;6.90;;;25.10;99.90;;;;;;5059894;28;20459;-85
2022/07/22 08:41:06;;;;;;;11.10;8.07;;;24.70;99.90;;;;;;5063701;28;20518;-87
2022/07/22 08:43:37;;;;;;;8.40;7.60;;;25.10;99.90;;;;;;5063614;28;20509;-87
2022/07/22 08:46:04;;;;;;;6.93;6.23;;;25.30;99.90;;;;;;5057976;28;20801;-88
2022/07/22 08:48:33;;;;;;;10.00;6.73;;;25.40;99.90;;;;;;5063507;28;20455;-85
2022/07/22 08:50:59;;;;;;;9.83;6.87;;;25.50;99.90;;;;;;5061979;28;20459;-86
2022/07/22 08:53:26;;;;;;;6.87;6.27;;;25.90;99.90;;;;;;5059321;28;20551;-85
2022/07/22 08:55:53;;;;;;;7.13;5.93;;;26.10;99.90;;;;;;5065024;28;20492;-85
2022/07/22 08:58:20;;;;;;;6.83;6.13;;;25.90;99.90;;;;;;5060989;28;20459;-86
2022/07/22 09:01:04;;;;;;;10.70;7.50;;;26.20;99.90;;;;;;5063505;28;21276;-84
2022/07/22 09:03:32;;;;;;;8.10;6.03;;;26.60;98.90;;;;;;5065027;28;20532;-85
2022/07/22 09:06:00;;;;;;;8.43;6.63;;;26.40;98.90;;;;;;5063053;28;20541;-86
2022/07/22 09:08:27;;;;;;;5.77;5.07;;;26.60;99.40;;;;;;5061215;28;20479;-84
2022/07/22 09:10:54;;;;;;;6.53;5.77;;;27.00;99.90;;;;;;5063107;28;20475;-85
2022/07/22 09:13:21;;;;;;;5.87;5.30;;;27.00;97.30;;;;;;5058438;28;20995;-86
2022/07/22 09:15:50;;;;;;;5.13;4.37;;;27.00;96.50;;;;;;5061224;28;20495;-85
2022/07/22 09:18:17;;;;;;;5.20;4.70;;;27.00;94.50;;;;;;5061607;28;20515;-87
2022/07/22 09:20:45;;;;;;;7.00;6.00;;;27.00;94.50;;;;;;5062070;28;20456;-86
2022/07/22 09:23:14;;;;;;;12.73;5.67;;;26.90;95.30;;;;;;5061633;28;20538;-86
2022/07/22 09:25:42;;;;;;;11.03;5.87;;;26.80;95.70;;;;;;5067704;28;20448;-86
2022/07/22 09:28:16;;;;;;;4.30;4.00;;;27.10;94.90;;;;;;5066111;28;20439;-85
2022/07/22 09:30:48;;;;;;;4.33;3.93;;;26.90;94.60;;;;;;5062835;28;20831;-85
2022/07/22 09:33:16;;;;;;;3.33;3.03;;;27.10;93.10;;;;;;5057977;28;21009;-85
2022/07/22 09:35:45;;;;;;;6.40;5.73;;;27.20;93.70;;;;;;5059503;28;20549;-85
2022/07/22 09:38:15;;;;;;;4.53;4.13;;;26.80;91.80;;;;;;5058562;28;20443;-86
2022/07/22 09:40:43;;;;;;;4.80;4.50;;;26.90;91.40;;;;;;5059179;28;22280;-85
2022/07/22 09:43:12;;;;;;;6.00;4.67;;;27.30;92.40;;;;;;5064376;28;20544;-85
2022/07/22 09:45:47;;;;;;;5.50;4.73;;;27.40;91.50;;;;;;5053157;28;20467;-85
2022/07/22 09:48:14;;;;;;;6.40;4.43;;;27.40;91.10;;;;;;5062313;28;20444;-86
2022/07/22 09:50:42;;;;;;;7.13;4.40;;;27.50;90.80;;;;;;5061375;28;20951;-85
2022/07/22 09:53:10;;;;;;;4.10;3.80;;;27.60;91.00;;;;;;5062078;28;20535;-86
2022/07/22 09:55:39;;;;;;;4.73;4.33;;;28.00;92.10;;;;;;5063970;28;20986;-84
2022/07/22 09:58:08;;;;;;;8.10;7.30;;;27.90;90.90;;;;;;5066459;28;20982;-86
2022/07/22 10:00:36;;;;;;;5.37;4.20;;;27.90;90.50;;;;;;5063698;28;20463;-84
2022/07/22 10:03:06;;;;;;;5.50;5.00;;;28.00;89.50;;;;;;5064557;28;20466;-85
2022/07/22 10:05:34;;;;;;;4.50;4.00;;;27.90;90.70;;;;;;5060830;28;20459;-85
2022/07/22 10:11:25;;;;;;;5.40;4.97;;;28.40;92.10;;;;;;5051513;28;20923;-85
2022/07/22 10:13:53;;;;;;;5.03;4.63;;;28.40;91.40;;;;;;5054099;28;20514;-86
2022/07/22 10:16:20;;;;;;;4.90;3.03;;;28.50;84.90;;;;;;5058310;28;20491;-86
2022/07/22 10:18:48;;;;;;;4.40;4.10;;;28.70;83.60;;;;;;5060651;28;20436;-86
2022/07/22 10:21:17;;;;;;;5.10;4.60;;;28.20;86.20;;;;;;5061344;28;20463;-86
2022/07/22 10:24:12;;;;;;;4.17;3.80;;;28.30;85.90;;;;;;5054654;28;20456;-86
2022/07/22 10:26:51;;;;;;;5.07;4.67;;;28.80;87.90;;;;;;5053047;28;20465;-86
2022/07/22 10:29:32;;;;;;;3.97;3.70;;;28.60;82.90;;;;;;5052146;28;20495;-85
2022/07/22 10:32:32;;;;;;;4.40;4.00;;;28.60;81.80;;;;;;5055924;28;20549;-85
2022/07/22 10:35:23;;;;;;;5.50;3.30;;;28.90;85.50;;;;;;4960000;28;20563;-86
2022/07/22 10:37:52;;;;;;;6.90;4.93;;;28.90;83.20;;;;;;4955900;28;21245;-85
2022/07/22 10:40:21;;;;;;;4.20;3.80;;;28.80;83.40;;;;;;5018870;28;20526;-85
2022/07/22 10:43:12;;;;;;;4.10;3.70;;;28.80;83.90;;;;;;5073903;28;20475;-85
2022/07/22 10:45:46;;;;;;;3.93;3.53;;;28.50;83.20;;;;;;5075217;28;20456;-84
2022/07/22 10:48:15;;;;;;;4.50;4.20;;;28.90;86.50;;;;;;5082596;28;20448;-84
2022/07/22 10:50:50;;;;;;;4.80;4.33;;;28.90;79.80;;;;;;5071138;28;20973;-86
2022/07/22 10:53:20;;;;;;;3.17;2.97;;;28.90;86.00;;;;;;5065924;28;20436;-87
2022/07/22 10:56:04;;;;;;;3.00;2.77;;;29.00;85.00;;;;;;5052331;28;20540;-85
2022/07/22 10:58:47;;;;;;;3.13;2.93;;;29.20;79.60;;;;;;5058872;28;20540;-85
2022/07/22 11:01:17;;;;;;;3.47;3.00;;;29.40;80.00;;;;;;5068090;28;20448;-85
2022/07/22 11:03:46;;;;;;;3.67;3.37;;;29.70;82.70;;;;;;5062894;28;20510;-86
2022/07/22 11:06:22;;;;;;;3.50;3.20;;;29.80;76.70;;;;;;5060479;28;20455;-86
2022/07/22 11:08:52;;;;;;;2.93;2.73;;;29.80;77.10;;;;;;5054985;28;20615;-87
2022/07/22 11:11:31;;;;;;;3.17;2.97;;;29.50;77.50;;;;;;5051905;28;20954;-85
2022/07/22 11:14:00;;;;;;;3.27;3.07;;;29.70;75.90;;;;;;5059887;28;20450;-85
2022/07/22 11:16:28;;;;;;;3.30;3.10;;;30.00;76.70;;;;;;5064879;28;20895;-85
2022/07/22 11:18:57;;;;;;;3.57;3.23;;;30.10;76.20;;;;;;5057140;28;20527;-85
2022/07/22 11:21:27;;;;;;;2.70;2.50;;;30.30;75.30;;;;;;5058135;28;20910;-85
2022/07/22 11:23:56;;;;;;;3.07;2.77;;;30.20;77.20;;;;;;5068071;28;21017;-87
2022/07/22 11:26:27;;;;;;;3.43;3.23;;;30.20;76.10;;;;;;5068960;28;20452;-85
2022/07/22 11:28:55;;;;;;;4.40;2.60;;;30.50;77.00;;;;;;5062182;28;20464;-85
2022/07/22 11:31:24;;;;;;;3.23;3.00;;;30.80;77.10;;;;;;5067251;28;20456;-87
2022/07/22 11:33:51;;;;;;;2.57;2.40;;;30.60;71.60;;;;;;5062283;28;20468;-87
2022/07/22 11:36:21;;;;;;;3.67;3.37;;;31.00;76.20;;;;;;5058937;28;20479;-87
2022/07/22 11:38:52;;;;;;;2.87;2.63;;;30.90;72.30;;;;;;5058260;28;21245;-85
2022/07/22 11:41:19;;;;;;;3.10;2.90;;;30.70;70.60;;;;;;5054618;28;20505;-86
2022/07/22 11:43:48;;;;;;;3.43;3.23;;;31.00;69.00;;;;;;5057029;28;21217;-86
2022/07/22 11:46:16;;;;;;;3.07;2.80;;;31.00;69.30;;;;;;5059600;28;20492;-86
2022/07/22 11:48:45;;;;;;;3.97;2.97;;;31.30;69.70;;;;;;5057270;28;20460;-86
2022/07/22 11:51:14;;;;;;;3.83;3.00;;;31.20;71.60;;;;;;5065244;28;20466;-89
2022/07/22 11:53:42;;;;;;;3.97;3.73;;;30.90;70.30;;;;;;5060566;28;20480;-81
2022/07/22 11:56:11;;;;;;;4.03;3.53;;;30.80;69.10;;;;;;5059860;28;20480;-84
2022/07/22 11:58:40;;;;;;;2.80;2.60;;;31.10;72.20;;;;;;5062394;28;20543;-84
2022/07/22 12:01:09;;;;;;;3.93;3.63;;;30.70;68.00;;;;;;5057806;28;20468;-84
2022/07/22 12:03:37;;;;;;;3.40;3.20;;;31.10;68.30;;;;;;5048998;28;20471;-84
2022/07/22 12:06:09;;;;;;;3.37;3.10;;;31.70;70.90;;;;;;5054596;28;20467;-84
2022/07/22 12:08:41;;;;;;;3.07;2.83;;;31.70;71.90;;;;;;5057314;28;20475;-89
2022/07/22 12:11:10;;;;;;;3.70;3.50;;;31.50;65.90;;;;;;5051589;28;20561;-85
2022/07/22 12:13:37;;;;;;;4.23;3.83;;;31.30;68.70;;;;;;5051053;28;20460;-87
2022/07/22 12:16:22;;;;;;;3.10;2.90;;;31.20;64.90;;;;;;5050799;28;20499;-87
2022/07/22 12:18:54;;;;;;;3.67;3.47;;;31.00;67.90;;;;;;5050626;28;20959;-86
2022/07/22 12:21:23;;;;;;;3.77;3.47;;;31.10;69.00;;;;;;5052695;28;20484;-86
2022/07/22 12:23:56;;;;;;;3.03;2.83;;;31.30;66.50;;;;;;5057108;28;20470;-86
2022/07/22 12:26:42;;;;;;;3.10;2.77;;;31.10;67.50;;;;;;5051575;28;21093;-86
2022/07/22 12:29:20;;;;;;;3.30;3.10;;;31.30;66.40;;;;;;5053177;28;20456;-87
2022/07/22 12:31:49;;;;;;;3.33;3.13;;;31.40;67.40;;;;;;5055387;28;21032;-86
2022/07/22 12:34:16;;;;;;;4.20;3.90;;;31.00;67.30;;;;;;5060855;28;20456;-85
2022/07/22 12:36:48;;;;;;;3.50;3.13;;;30.50;69.00;;;;;;5058788;28;20491;-87
2022/07/22 12:39:17;;;;;;;4.53;4.23;;;30.60;70.50;;;;;;5051791;28;21051;-88
2022/07/22 12:41:49;;;;;;;4.83;4.37;;;30.80;71.60;;;;;;5058964;28;20460;-86
2022/07/22 12:44:18;;;;;;;3.10;2.90;;;30.90;70.60;;;;;;5051966;28;20452;-87
2022/07/22 12:46:50;;;;;;;7.73;4.77;;;31.00;69.40;;;;;;5060336;28;20436;-87
2022/07/22 12:49:19;;;;;;;4.27;4.00;;;30.90;69.30;;;;;;5064271;28;20443;-87
2022/07/22 12:52:13;;;;;;;3.50;3.20;;;30.70;74.30;;;;;;5066859;28;20489;-87
2022/07/22 12:54:41;;;;;;;4.50;4.20;;;30.60;68.50;;;;;;5064839;28;20456;-86
2022/07/22 12:57:10;;;;;;;3.67;3.47;;;30.90;70.00;;;;;;5064818;28;20694;-86